createdAt,value
2019-05-20T00:01:18.308Z,75.77
2019-05-20T00:03:46.977Z,74.87
2019-05-20T00:06:15.556Z,75.85
2019-05-20T00:08:44.160Z,76.92
2019-05-20T00:11:12.833Z,77.38
2019-05-20T00:13:41.329Z,77.88
2019-05-20T00:16:09.955Z,78.46
2019-05-20T00:18:38.623Z,74.17
2019-05-20T00:21:07.126Z,75.79
2019-05-20T00:23:35.744Z,76.81
2019-05-20T00:26:04.429Z,79.07
2019-05-20T00:28:33.460Z,79.24
2019-05-20T00:31:02.113Z,79.96
2019-05-20T00:33:30.640Z,80.51
2019-05-20T00:35:59.199Z,81.59
2019-05-20T00:38:27.762Z,82.85
2019-05-20T00:40:56.293Z,82.98
2019-05-20T00:43:24.875Z,83.42
2019-05-20T00:45:53.491Z,84.07
2019-05-20T00:48:22.021Z,83.98
2019-05-20T00:50:50.654Z,83.91
2019-05-20T00:53:19.287Z,83.98
2019-05-20T00:55:47.964Z,83.60
2019-05-20T00:58:16.528Z,83.15
2019-05-20T01:00:45.231Z,84.01
2019-05-20T01:03:13.942Z,84.83
2019-05-20T01:05:42.503Z,86.17
2019-05-20T01:08:11.000Z,86.60
2019-05-20T01:10:39.640Z,87.49
2019-05-20T01:13:08.338Z,85.98
2019-05-20T01:15:36.932Z,86.42
2019-05-20T01:18:05.504Z,86.94
2019-05-20T01:20:34.137Z,88.29
2019-05-20T01:23:02.798Z,87.78
2019-05-20T01:25:31.357Z,87.41
2019-05-20T01:27:59.924Z,87.13
2019-05-20T01:30:28.589Z,87.84
2019-05-20T01:33:12.449Z,88.05
2019-05-20T01:35:27.360Z,89.46
2019-05-20T01:37:55.875Z,89.34
2019-05-20T01:40:24.604Z,89.25
2019-05-20T01:42:53.240Z,89.51
2019-05-20T01:45:21.839Z,89.13
2019-05-20T01:47:50.332Z,89.37
2019-05-20T01:50:19.018Z,88.93
2019-05-20T01:52:47.694Z,88.85
2019-05-20T01:55:16.746Z,89.72
2019-05-20T01:57:45.308Z,88.42
2019-05-20T02:00:14.175Z,89.07
2019-05-20T02:02:42.845Z,90.47
2019-05-20T02:05:11.631Z,89.70
2019-05-20T02:07:40.292Z,87.56
2019-05-20T02:10:09.216Z,86.37
2019-05-20T02:12:37.771Z,86.38
2019-05-20T02:15:15.612Z,87.46
2019-05-20T02:17:44.247Z,87.45
2019-05-20T02:20:12.974Z,85.64
2019-05-20T02:22:41.566Z,87.18
2019-05-20T02:25:10.394Z,86.64
2019-05-20T02:27:39.015Z,86.25
2019-05-20T02:30:09.386Z,80.73
2019-05-20T02:32:37.863Z,80.68
2019-05-20T02:35:07.271Z,82.23
2019-05-20T02:37:35.929Z,81.66
2019-05-20T02:40:06.362Z,77.15
2019-05-20T02:42:34.987Z,75.97
2019-05-20T02:45:05.461Z,77.73
2019-05-20T02:47:33.944Z,77.39
2019-05-20T02:50:02.659Z,77.53
2019-05-20T02:52:31.344Z,76.76
2019-05-20T02:55:00.005Z,74.75
2019-05-20T02:57:28.561Z,76.59
2019-05-20T02:59:57.226Z,77.41
2019-05-20T03:02:25.849Z,78.90
2019-05-20T03:04:54.477Z,77.84
2019-05-20T03:07:23.000Z,78.41
2019-05-20T03:09:51.565Z,79.22
2019-05-20T03:12:20.188Z,81.04
2019-05-20T03:14:48.859Z,82.44
2019-05-20T03:17:17.416Z,82.64
2019-05-20T03:19:45.970Z,83.98
2019-05-20T03:22:14.501Z,83.89
2019-05-20T03:24:43.057Z,84.40
2019-05-20T03:27:11.687Z,85.57
2019-05-20T03:29:40.211Z,79.22
2019-05-20T03:32:08.794Z,79.24
2019-05-20T03:34:47.606Z,78.75
2019-05-20T03:37:07.703Z,79.79
2019-05-20T03:39:36.194Z,80.19
2019-05-20T03:42:04.831Z,82.01
2019-05-20T03:44:33.499Z,81.03
2019-05-20T03:47:02.127Z,81.73
2019-05-20T03:49:30.683Z,81.58
2019-05-20T03:51:59.284Z,79.70
2019-05-20T03:54:27.872Z,79.14
2019-05-20T03:56:56.473Z,79.14
2019-05-20T03:59:25.163Z,78.52
2019-05-20T04:01:53.648Z,77.32
2019-05-20T04:04:25.057Z,77.65
2019-05-20T04:06:52.541Z,76.55
2019-05-20T04:09:21.251Z,74.26
2019-05-20T04:11:49.882Z,73.53
2019-05-20T04:14:18.484Z,73.82
2019-05-20T04:16:48.780Z,73.29
2019-05-20T04:19:17.362Z,72.91
2019-05-20T04:21:46.006Z,72.73
2019-05-20T04:24:14.763Z,72.88
2019-05-20T04:26:43.409Z,72.46
2019-05-20T04:29:12.081Z,71.57
2019-05-20T04:31:40.643Z,69.09
2019-05-20T04:34:09.130Z,68.38
2019-05-20T04:36:37.724Z,66.61
2019-05-20T04:39:07.065Z,65.35
2019-05-20T04:41:36.020Z,66.88
2019-05-20T04:44:04.747Z,65.30
2019-05-20T04:46:33.377Z,65.85
2019-05-20T04:49:02.015Z,63.86
2019-05-20T04:51:30.603Z,61.31
2019-05-20T04:53:59.241Z,60.08
2019-05-20T04:56:29.411Z,61.08
2019-05-20T04:58:58.061Z,62.56
2019-05-20T05:01:26.564Z,61.45
2019-05-20T05:03:55.255Z,61.36
2019-05-20T05:06:23.868Z,61.00
2019-05-20T05:08:52.434Z,59.62
2019-05-20T05:11:20.976Z,55.35
2019-05-20T05:13:49.653Z,54.28
2019-05-20T05:16:18.294Z,53.98
2019-05-20T05:18:46.962Z,54.04
2019-05-20T05:21:15.601Z,53.77
2019-05-20T05:23:58.290Z,53.76
2019-05-20T05:26:14.781Z,52.19
2019-05-20T05:28:43.419Z,50.99
2019-05-20T05:31:12.111Z,50.43
2019-05-20T05:33:40.737Z,50.22
2019-05-20T05:36:09.247Z,49.31
2019-05-20T05:38:37.921Z,48.78
2019-05-20T05:41:06.591Z,48.51
2019-05-20T05:43:35.074Z,47.37
2019-05-20T05:46:03.689Z,47.16
2019-05-20T05:48:32.317Z,46.61
2019-05-20T05:51:01.020Z,45.77
2019-05-20T05:53:29.556Z,45.39
2019-05-20T05:55:58.051Z,44.67
2019-05-20T05:58:26.693Z,43.29
2019-05-20T06:00:55.356Z,43.39
2019-05-20T06:03:24.000Z,44.85
2019-05-20T06:06:10.294Z,43.58
2019-05-20T06:08:22.941Z,43.71
2019-05-20T06:10:51.533Z,43.92
2019-05-20T06:13:20.167Z,43.19
2019-05-20T06:15:49.180Z,42.05
2019-05-20T06:18:17.957Z,40.51
2019-05-20T06:20:46.547Z,40.23
2019-05-20T06:23:15.338Z,39.91
2019-05-20T06:25:43.971Z,39.56
2019-05-20T06:28:12.602Z,40.92
2019-05-20T06:30:43.072Z,41.95
2019-05-20T06:33:11.704Z,41.42
2019-05-20T06:35:40.744Z,44.54
2019-05-20T06:38:13.700Z,43.02
2019-05-20T06:40:42.278Z,44.07
2019-05-20T06:43:11.001Z,43.20
2019-05-20T06:45:39.670Z,43.84
2019-05-20T06:48:08.229Z,42.40
2019-05-20T06:50:36.721Z,43.17
2019-05-20T06:53:05.384Z,42.53
2019-05-20T06:55:34.015Z,39.94
2019-05-20T06:58:02.571Z,35.47
2019-05-20T07:00:38.915Z,34.45
2019-05-20T07:03:07.536Z,38.35
2019-05-20T07:05:36.176Z,36.55
2019-05-20T07:08:04.936Z,36.85
2019-05-20T07:10:33.601Z,37.97
2019-05-20T07:13:02.223Z,39.22
2019-05-20T07:15:30.906Z,38.25
2019-05-20T07:17:59.541Z,37.45
2019-05-20T07:20:28.097Z,37.47
2019-05-20T07:22:57.268Z,34.33
2019-05-20T07:25:26.178Z,33.28
2019-05-20T07:27:54.870Z,32.93
2019-05-20T07:30:23.594Z,30.79
2019-05-20T07:32:52.343Z,31.17
2019-05-20T07:35:30.251Z,32.92
2019-05-20T07:37:51.363Z,34.46
2019-05-20T07:40:30.954Z,32.07
2019-05-20T07:42:59.514Z,32.67
2019-05-20T07:45:29.917Z,31.76
2019-05-20T07:47:58.800Z,31.53
2019-05-20T07:50:28.356Z,31.79
2019-05-20T07:53:00.332Z,30.84
2019-05-20T07:55:30.277Z,31.23
2019-05-20T07:58:01.813Z,30.15
2019-05-20T08:00:30.642Z,31.99
2019-05-20T08:02:59.388Z,31.56
2019-05-20T08:05:28.158Z,29.88
2019-05-20T08:07:56.804Z,28.96
2019-05-20T08:10:25.438Z,29.09
2019-05-20T08:12:54.215Z,30.09
2019-05-20T08:15:23.201Z,28.52
2019-05-20T08:17:51.806Z,29.14
2019-05-20T08:20:20.445Z,29.80
2019-05-20T08:22:49.079Z,30.95
2019-05-20T08:25:18.120Z,30.29
2019-05-20T08:27:47.104Z,29.10
2019-05-20T08:30:18.331Z,31.25
2019-05-20T08:32:47.151Z,30.90
2019-05-20T08:35:16.812Z,29.85
2019-05-20T08:37:46.247Z,28.68
2019-05-20T08:40:15.119Z,28.44
2019-05-20T08:42:43.817Z,28.93
2019-05-20T08:45:12.990Z,27.28
2019-05-20T08:47:41.735Z,28.27
2019-05-20T08:50:15.987Z,28.69
2019-05-20T08:52:41.626Z,26.48
2019-05-20T08:55:10.409Z,25.29
2019-05-20T08:57:39.166Z,24.14
2019-05-20T09:00:10.031Z,24.93
2019-05-20T09:02:38.625Z,24.75
2019-05-20T09:05:07.474Z,25.35
2019-05-20T09:07:36.183Z,26.30
2019-05-20T09:10:05.709Z,28.55
2019-05-20T09:12:34.381Z,30.24
2019-05-20T09:15:03.197Z,32.91
2019-05-20T09:17:31.830Z,31.50
2019-05-20T09:20:00.501Z,30.18
2019-05-20T09:22:29.056Z,29.36
2019-05-20T09:24:57.816Z,27.82
2019-05-20T09:27:26.467Z,27.36
2019-05-20T09:29:55.232Z,26.59
2019-05-20T09:32:24.050Z,25.96
2019-05-20T09:34:52.678Z,27.55
2019-05-20T09:37:21.318Z,29.15
2019-05-20T09:39:49.952Z,29.68
2019-05-20T09:42:18.642Z,29.00
2019-05-20T09:44:47.300Z,29.75
2019-05-20T09:47:15.863Z,31.27
2019-05-20T09:49:44.414Z,30.37
2019-05-20T09:52:13.052Z,30.34
2019-05-20T09:54:45.437Z,31.71
2019-05-20T09:57:12.100Z,30.28
2019-05-20T09:59:43.655Z,30.51
2019-05-20T10:02:10.956Z,30.56
2019-05-20T10:07:37.499Z,31.33
2019-05-20T10:10:08.016Z,31.54
2019-05-20T10:12:46.012Z,31.19
2019-05-20T10:15:07.860Z,31.71
2019-05-20T10:17:36.499Z,33.63
2019-05-20T10:20:08.231Z,33.55
2019-05-20T10:22:36.978Z,33.55
2019-05-20T10:25:06.815Z,35.32
2019-05-20T10:27:35.404Z,35.21
2019-05-20T10:30:05.925Z,34.30
2019-05-20T10:32:34.561Z,35.08
2019-05-20T10:35:03.697Z,34.71
2019-05-20T10:37:32.379Z,34.07
2019-05-20T10:40:01.199Z,34.50
2019-05-20T10:42:29.757Z,34.61
2019-05-20T10:44:58.374Z,36.20
2019-05-20T10:47:26.871Z,38.52
2019-05-20T10:49:55.520Z,40.05
2019-05-20T10:52:24.200Z,42.95
2019-05-20T10:54:52.768Z,44.43
2019-05-20T10:57:21.404Z,47.29
2019-05-20T10:59:50.069Z,48.43
2019-05-20T11:02:18.709Z,50.35
2019-05-20T11:04:47.335Z,53.37
2019-05-20T11:07:15.959Z,56.43
2019-05-20T11:09:44.665Z,56.70
2019-05-20T11:12:13.317Z,57.27
2019-05-20T11:14:41.990Z,58.78
2019-05-20T11:17:14.744Z,58.06
2019-05-20T11:19:40.976Z,54.60
2019-05-20T11:22:09.586Z,56.21
2019-05-20T11:24:38.087Z,53.16
2019-05-20T11:27:06.722Z,51.38
2019-05-20T11:29:35.394Z,50.40
2019-05-20T11:32:04.019Z,50.99
2019-05-20T11:34:32.556Z,50.85
2019-05-20T11:37:01.447Z,51.52
2019-05-20T11:39:33.847Z,52.42
2019-05-20T11:42:00.515Z,52.66
2019-05-20T11:44:29.131Z,52.18
2019-05-20T11:46:57.764Z,51.76
2019-05-20T11:49:29.064Z,50.77
2019-05-20T11:51:56.749Z,51.70
2019-05-20T11:54:25.328Z,50.57
2019-05-20T11:56:53.962Z,50.31
2019-05-20T11:59:22.629Z,50.25
2019-05-20T12:01:51.184Z,49.95
2019-05-20T12:04:19.686Z,48.61
2019-05-20T12:06:48.352Z,48.55
2019-05-20T12:09:16.991Z,48.95
2019-05-20T12:11:45.555Z,48.88
2019-05-20T12:14:14.094Z,49.27
2019-05-20T12:16:42.585Z,48.82
2019-05-20T12:19:11.233Z,48.11
2019-05-20T12:21:39.915Z,48.66
2019-05-20T12:24:08.479Z,49.19
2019-05-20T12:26:37.106Z,48.95
2019-05-20T12:29:05.772Z,50.13
2019-05-20T12:31:34.347Z,50.45
2019-05-20T12:34:02.940Z,50.82
2019-05-20T12:36:31.620Z,53.53
2019-05-20T12:39:00.259Z,56.42
2019-05-20T12:41:28.908Z,63.54
2019-05-20T12:44:10.758Z,66.32
2019-05-20T12:46:27.856Z,70.60
2019-05-20T12:48:56.450Z,75.84
2019-05-20T12:51:25.124Z,78.58
2019-05-20T12:53:53.756Z,80.68
2019-05-20T12:56:22.395Z,83.05
2019-05-20T12:58:51.006Z,85.25
2019-05-20T13:01:19.636Z,89.16
2019-05-20T13:03:48.295Z,88.33
2019-05-20T13:06:16.832Z,88.38
2019-05-20T13:08:45.465Z,88.72
2019-05-20T13:11:14.101Z,89.91
2019-05-20T13:13:42.779Z,88.32
2019-05-20T13:16:11.629Z,87.39
2019-05-20T13:18:54.952Z,88.49
2019-05-20T13:21:10.611Z,88.22
2019-05-20T13:23:39.197Z,87.91
2019-05-20T13:26:07.904Z,86.01
2019-05-20T13:28:36.605Z,84.40
2019-05-20T13:31:05.183Z,84.74
2019-05-20T13:33:33.669Z,82.25
2019-05-20T13:36:02.445Z,81.13
2019-05-20T13:38:31.002Z,79.96
2019-05-20T13:40:59.576Z,74.85
2019-05-20T13:43:28.550Z,74.60
2019-05-20T13:45:57.197Z,70.75
2019-05-20T13:48:25.845Z,68.37
2019-05-20T13:50:54.500Z,66.62
2019-05-20T13:53:23.119Z,64.41
2019-05-20T13:55:51.728Z,62.83
2019-05-20T13:58:20.399Z,62.64
2019-05-20T14:00:49.043Z,62.02
2019-05-20T14:03:17.704Z,61.82
2019-05-20T14:05:46.314Z,58.54
2019-05-20T14:08:15.098Z,57.93
2019-05-20T14:10:43.814Z,56.74
2019-05-20T14:13:12.514Z,55.57
2019-05-20T14:15:41.163Z,55.16
2019-05-20T14:18:09.732Z,54.35
2019-05-20T14:20:38.345Z,52.11
2019-05-20T14:23:06.982Z,51.33
2019-05-20T14:25:35.665Z,51.21
2019-05-20T14:28:04.303Z,50.10
2019-05-20T14:30:32.953Z,51.03
2019-05-20T14:33:01.765Z,49.80
2019-05-20T14:35:30.515Z,50.25
2019-05-20T14:37:59.156Z,51.43
2019-05-20T14:40:27.803Z,51.71
2019-05-20T14:42:56.471Z,52.12
2019-05-20T14:45:25.092Z,52.94
2019-05-20T14:47:53.641Z,52.40
2019-05-20T14:50:22.405Z,52.94
2019-05-20T14:52:51.676Z,53.47
2019-05-20T14:55:20.283Z,54.18
2019-05-20T14:57:48.889Z,55.95
2019-05-20T15:00:17.625Z,56.23
2019-05-20T15:02:46.194Z,59.90
2019-05-20T15:05:14.932Z,63.34
2019-05-20T15:07:43.606Z,64.15
2019-05-20T15:10:12.402Z,65.66
2019-05-20T15:12:41.190Z,68.86
2019-05-20T15:15:10.520Z,70.18
2019-05-20T15:17:39.102Z,69.61
2019-05-20T15:20:08.077Z,71.33
2019-05-20T15:22:36.708Z,71.36
2019-05-20T15:25:06.056Z,72.08
2019-05-20T15:27:34.744Z,73.10
2019-05-20T15:30:03.320Z,70.24
2019-05-20T15:32:31.887Z,70.42
2019-05-20T15:35:00.568Z,67.30
2019-05-20T15:37:29.271Z,67.09
2019-05-20T15:39:57.885Z,65.85
2019-05-20T15:42:26.404Z,64.81
2019-05-20T15:44:55.031Z,63.96
2019-05-20T15:47:23.783Z,68.27
2019-05-20T15:49:52.448Z,69.35
2019-05-20T15:52:20.948Z,69.83
2019-05-20T15:54:49.687Z,70.41
2019-05-20T15:57:18.512Z,71.45
2019-05-20T15:59:47.014Z,67.71
2019-05-20T16:02:15.588Z,68.80
2019-05-20T16:04:44.126Z,68.87
2019-05-20T16:07:12.765Z,68.12
2019-05-20T16:09:41.413Z,67.44
2019-05-20T16:12:10.086Z,73.41
2019-05-20T16:14:38.645Z,75.50
2019-05-20T16:17:07.301Z,77.26
2019-05-20T16:19:35.965Z,78.98
2019-05-20T16:22:04.702Z,77.87
2019-05-20T16:24:33.202Z,75.84
2019-05-20T16:27:01.737Z,74.50
2019-05-20T16:29:30.367Z,76.18
2019-05-20T16:31:59.007Z,73.14
2019-05-20T16:34:27.689Z,73.82
2019-05-20T16:36:56.177Z,74.60
2019-05-20T16:39:24.809Z,75.68
2019-05-20T16:41:53.425Z,75.16
2019-05-20T16:44:22.042Z,74.33
2019-05-20T16:46:50.687Z,73.32
2019-05-20T16:49:19.293Z,75.03
2019-05-20T16:51:47.857Z,76.70
2019-05-20T16:54:16.556Z,79.33
2019-05-20T16:56:45.245Z,80.54
2019-05-20T16:59:13.859Z,81.72
2019-05-20T17:01:46.195Z,82.05
2019-05-20T17:04:12.861Z,81.34
2019-05-20T17:06:41.482Z,82.31
2019-05-20T17:09:10.210Z,82.02
2019-05-20T17:11:38.871Z,81.18
2019-05-20T17:14:10.571Z,80.16
2019-05-20T17:16:38.084Z,81.55
2019-05-20T17:19:06.990Z,82.84
2019-05-20T17:21:35.445Z,81.61
2019-05-20T17:24:04.088Z,78.21
2019-05-20T17:26:32.725Z,76.63
2019-05-20T17:29:01.399Z,76.92
2019-05-20T17:31:30.936Z,76.46
2019-05-20T17:34:00.933Z,76.32
2019-05-20T17:36:29.588Z,75.82
2019-05-20T17:38:58.148Z,75.51
2019-05-20T17:41:27.086Z,74.01
2019-05-20T17:43:55.892Z,74.92
2019-05-20T17:46:24.653Z,75.72
2019-05-20T17:48:53.231Z,76.28
2019-05-20T17:51:21.832Z,76.77
2019-05-20T17:53:50.467Z,76.88
2019-05-20T17:56:19.107Z,77.51
2019-05-20T17:58:47.706Z,77.56
2019-05-20T18:01:16.440Z,78.45
2019-05-20T18:03:44.940Z,79.61
2019-05-20T18:06:13.519Z,80.91
2019-05-20T18:08:43.817Z,81.92
2019-05-20T18:11:12.468Z,81.37
2019-05-20T18:13:41.220Z,81.42
2019-05-20T18:16:09.717Z,81.90
2019-05-20T18:18:38.354Z,80.77
2019-05-20T18:21:07.029Z,80.20
2019-05-20T18:23:35.680Z,79.26
2019-05-20T18:26:04.260Z,79.34
2019-05-20T18:28:32.856Z,80.44
2019-05-20T18:31:01.493Z,82.25
2019-05-20T18:33:30.129Z,83.21
2019-05-20T18:35:58.670Z,83.49
2019-05-20T18:38:27.303Z,84.29
2019-05-20T18:40:55.859Z,83.34
2019-05-20T18:43:24.547Z,84.39
2019-05-20T18:45:53.198Z,79.28
2019-05-20T18:48:21.832Z,77.74
2019-05-20T18:50:50.561Z,80.60
2019-05-20T18:53:19.187Z,82.18
2019-05-20T18:55:47.752Z,81.86
2019-05-20T18:58:16.412Z,77.70
2019-05-20T19:00:45.083Z,78.42
2019-05-20T19:03:13.646Z,80.95
2019-05-20T19:05:42.330Z,81.63
2019-05-20T19:08:10.903Z,83.21
2019-05-20T19:10:39.552Z,83.29
2019-05-20T19:13:08.211Z,83.69
2019-05-20T19:15:36.848Z,83.57
2019-05-20T19:18:05.572Z,84.21
2019-05-20T19:20:34.254Z,84.57
2019-05-20T19:23:02.820Z,84.93
2019-05-20T19:25:37.881Z,85.95
2019-05-20T19:28:01.772Z,86.04
2019-05-20T19:30:30.515Z,86.33
2019-05-20T19:32:59.147Z,86.45
2019-05-20T19:35:27.814Z,86.89
2019-05-20T19:37:56.448Z,87.67
2019-05-20T19:40:25.012Z,87.47
2019-05-20T19:42:53.551Z,88.71
2019-05-20T19:45:22.144Z,91.07
2019-05-20T19:47:50.772Z,91.60
2019-05-20T19:50:19.446Z,90.66
2019-05-20T19:52:47.972Z,90.66
2019-05-20T19:55:18.826Z,92.47
2019-05-20T19:57:46.978Z,96.14
2019-05-20T20:00:16.273Z,95.73
2019-05-20T20:02:44.965Z,96.85
2019-05-20T20:05:13.650Z,97.86
2019-05-20T20:07:42.136Z,99.33
2019-05-20T20:10:10.775Z,99.89
2019-05-20T20:12:39.521Z,100.00
2019-05-20T20:15:08.557Z,100.00
2019-05-20T20:17:37.117Z,100.00
2019-05-20T20:20:06.901Z,100.00
2019-05-20T20:22:35.532Z,100.00
2019-05-20T20:25:05.561Z,100.00
2019-05-20T20:27:34.244Z,100.00
2019-05-20T20:30:02.822Z,100.00
2019-05-20T20:32:37.887Z,100.00
2019-05-20T20:35:01.851Z,100.00
2019-05-20T20:37:30.480Z,100.00
2019-05-20T20:39:59.142Z,100.00
2019-05-20T20:42:27.668Z,100.00
2019-05-20T20:44:56.173Z,100.00
2019-05-20T20:47:24.902Z,100.00
2019-05-20T20:49:53.536Z,100.00
2019-05-20T20:52:22.160Z,100.00
2019-05-20T20:54:50.730Z,100.00
2019-05-20T20:57:19.458Z,100.00
2019-05-20T20:59:50.204Z,100.00
2019-05-20T21:02:18.286Z,100.00
2019-05-20T21:04:46.928Z,100.00
2019-05-20T21:07:15.575Z,100.00
2019-05-20T21:09:44.255Z,100.00
2019-05-20T21:12:12.755Z,100.00
2019-05-20T21:14:41.318Z,100.00
2019-05-20T21:17:09.989Z,100.00
2019-05-20T21:19:38.488Z,100.00
2019-05-20T21:22:07.175Z,100.00
2019-05-20T21:24:35.909Z,100.00
2019-05-20T21:27:05.209Z,100.00
2019-05-20T21:29:33.653Z,100.00
2019-05-20T21:32:02.343Z,100.00
2019-05-20T21:34:31.244Z,100.00
2019-05-20T21:36:59.971Z,100.00
2019-05-20T21:39:28.530Z,100.00
2019-05-20T21:41:57.173Z,100.00
2019-05-20T21:44:25.821Z,100.00
2019-05-20T21:46:54.407Z,100.00
2019-05-20T21:49:22.900Z,100.00
2019-05-20T21:51:51.489Z,100.00
2019-05-20T21:54:20.090Z,100.00
2019-05-20T21:56:50.109Z,100.00
2019-05-20T21:59:18.846Z,100.00
2019-05-20T22:01:47.526Z,100.00
2019-05-20T22:04:16.105Z,100.00
2019-05-20T22:06:44.757Z,100.00
2019-05-20T22:09:13.415Z,100.00
2019-05-20T22:11:41.907Z,100.00
2019-05-20T22:14:10.524Z,100.00
2019-05-20T22:16:39.159Z,100.00
2019-05-20T22:19:07.829Z,100.00
2019-05-20T22:21:40.748Z,100.00
2019-05-20T22:24:09.256Z,100.00
2019-05-20T22:26:38.031Z,100.00
2019-05-20T22:29:06.725Z,100.00
2019-05-20T22:31:35.248Z,100.00
2019-05-20T22:34:03.826Z,100.00
2019-05-20T22:36:32.474Z,100.00
2019-05-20T22:39:01.145Z,100.00
2019-05-20T22:41:29.647Z,100.00
2019-05-20T22:43:58.149Z,100.00
2019-05-20T22:46:26.823Z,100.00
2019-05-20T22:48:55.507Z,100.00
2019-05-20T22:51:24.010Z,100.00
2019-05-20T22:53:52.554Z,100.00
2019-05-20T22:56:21.190Z,100.00
2019-05-20T22:58:49.704Z,100.00
2019-05-20T23:01:18.251Z,100.00
2019-05-20T23:03:55.959Z,100.00
2019-05-20T23:06:17.091Z,100.00
2019-05-20T23:08:45.699Z,100.00
2019-05-20T23:11:14.221Z,100.00
2019-05-20T23:13:42.907Z,100.00
2019-05-20T23:16:11.549Z,100.00
2019-05-20T23:18:40.111Z,100.00
2019-05-20T23:21:08.876Z,100.00
2019-05-20T23:23:37.754Z,100.00
2019-05-20T23:26:06.269Z,100.00
2019-05-20T23:28:34.880Z,100.00
2019-05-20T23:31:03.533Z,100.00
2019-05-20T23:33:32.162Z,100.00
2019-05-20T23:36:00.706Z,100.00
2019-05-20T23:38:29.214Z,100.00
2019-05-20T23:40:57.856Z,100.00
2019-05-20T23:43:26.533Z,100.00
2019-05-20T23:45:55.039Z,100.00
2019-05-20T23:48:23.624Z,100.00
2019-05-20T23:50:52.306Z,100.00
2019-05-20T23:53:20.943Z,100.00
2019-05-20T23:55:49.584Z,100.00
2019-05-20T23:58:18.275Z,100.00
